Flight Track Log - Related Links

Times and Time Zones

All times are in EDT time to prevent confusion due to time zone crossing. See the SWA2975 flight status page for this flight to view local times or setup timezone preferences in your user account.

Time Position Orientation Groundspeed Altitude Reporting Facility
EDT Latitude Longitude Course Direction KTS MPH feet Rate Location/Type
Tue 06:34:42 PM 40.8280 -111.9650 359° North 203 234 5,600  Level FlightAware ADS-B
Tue 06:35:10 PM 40.8560 -111.9700 352° North 237 273 6,200 1,655 Climbing FlightAware ADS-B
Tue 06:35:40 PM 40.8900 -111.9740 355° North 252 290 7,200 2,172 Climbing FlightAware ADS-B
Tue 06:36:08 PM 40.9240 -111.9790 354° North 267 307 8,300 2,143 Climbing FlightAware ADS-B
Tue 06:36:36 PM 40.9610 -111.9840 354° North 288 331 9,200 2,000 Climbing FlightAware ADS-B
Tue 06:36:50 PM 40.9800 -111.9870 353° North 299 344 9,700 2,308 Climbing FlightAware ADS-B
Tue 06:37:28 PM 41.0320 -112.0000 349° North 317 365 11,200 2,384 Climbing FlightAware ADS-B
Tue 06:38:03 PM 41.0750 -111.9640 32° Northeast 331 381 12,600 2,298 Climbing FlightAware ADS-B
Tue 06:38:15 PM 41.0810 -111.9410 71° East 336 387 13,000 1,286 Climbing FlightAware ADS-B
Tue 06:38:31 PM 41.0800 -111.9070 92° East 348 400 13,200 1,500 Climbing FlightAware ADS-B
Tue 06:39:11 PM 41.0630 -111.8190 104° East 379 436 14,400 2,049 Climbing FlightAware ADS-B
Tue 06:39:53 PM 41.0460 -111.7220 103° East 395 455 16,000 1,976 Climbing FlightAware ADS-B
Tue 06:40:36 PM 41.0310 -111.6190 101° East 419 482 17,200 1,906 Climbing FlightAware ADS-B
Tue 06:41:18 PM 41.0410 -111.5090 83° East 428 493 18,700 1,636 Climbing FlightAware ADS-B
Tue 06:42:15 PM 41.0730 -111.3790 72° East 432 497 19,900 774 Climbing FlightAware ADS-B
Tue 06:42:51 PM 41.0910 -111.3020 73° East 432 497 19,900  Level FlightAware ADS-B
Tue 06:43:39 PM 41.1170 -111.1990 71° East 432 497 19,900  Level FlightAware ADS-B
Tue 06:44:15 PM 41.1350 -111.1220 73° East 432 497 19,900  Level FlightAware ADS-B
Tue 06:45:03 PM 41.1610 -111.0190 71° East 432 497 19,900  Level FlightAware ADS-B
Tue 06:45:39 PM 41.1800 -110.9410 72° East 432 497 19,900 4,945 Level FlightAware ADS-B
Tue 06:46:34 PM 41.2317 -110.6711 72° East 480 552 27,400 4,410 Climbing Salt Lake Center
Tue 06:47:36 PM 41.2703 -110.5036 73° East 494 568 28,500 1,210 Climbing Salt Lake Center
Tue 06:48:38 PM 41.3142 -110.3036 74° East 504 580 29,900 1,268 Climbing Salt Lake Center
Tue 06:49:39 PM 41.3533 -110.1300 73° East 511 588 31,100 1,220 Climbing Salt Lake Center
Tue 06:50:41 PM 41.3900 -109.9572 74° East 509 586 32,400 1,258 Climbing Salt Lake Center
Tue 06:51:43 PM 41.4328 -109.7569 74° East 504 580 33,700 1,161 Climbing Salt Lake Center
Tue 06:52:45 PM 41.4700 -109.5853 74° East 503 579 34,800 1,073 Climbing Salt Lake Center
Tue 06:53:46 PM 41.5133 -109.3858 74° East 499 574 35,900 927 Climbing Salt Lake Center
Tue 06:54:48 PM 41.5514 -109.2128 74° East 499 574 36,700 532 Climbing Salt Lake Center
Tue 06:55:50 PM 41.5867 -109.0358 75° East 502 578 37,000 145 Climbing Salt Lake Center
Tue 06:56:52 PM 41.6056 -108.8283 83° East 498 573 37,000  Level Salt Lake Center
Tue 06:57:53 PM 41.6194 -108.6522 84° East 497 572 37,000  Level Salt Lake Center
Tue 06:58:55 PM 41.6336 -108.4461 85° East 498 573 37,000  Level Salt Lake Center
Tue 06:59:48 PM 41.6444 -108.2972 84° East 497 572 37,000  Level Denver Center
Tue 07:00:58 PM 41.6600 -108.0939 84° East 498 573 37,000  Level Salt Lake Center
Tue 07:02:00 PM 41.6744 -107.8867 85° East 500 575 37,000  Level Salt Lake Center
Tue 07:03:02 PM 41.6864 -107.7100 85° East 500 575 37,000  Level Salt Lake Center
Tue 07:03:56 PM 41.6981 -107.5325 85° East 497 572 37,000  Level Denver Center
Tue 07:09:59 PM 41.7680 -106.4050 85° East 497 572 37,000  Level FlightAware ADS-B
Tue 07:10:45 PM 41.7750 -106.2620 86° East 498 573 37,000  Level FlightAware ADS-B
Tue 07:11:31 PM 41.7830 -106.1230 86° East 499 574 37,000  Level FlightAware ADS-B
Tue 07:12:15 PM 41.7900 -105.9870 86° East 500 575 37,000  Level FlightAware ADS-B
Tue 07:12:57 PM 41.7970 -105.8560 86° East 500 575 37,000  Level FlightAware ADS-B
Tue 07:13:41 PM 41.8040 -105.7200 86° East 500 575 37,000  Level FlightAware ADS-B
Tue 07:14:17 PM 41.8100 -105.6100 86° East 500 575 37,000  Level FlightAware ADS-B
Tue 07:15:15 PM 41.8180 -105.4370 86° East 501 577 37,000  Level FlightAware ADS-B
Tue 07:15:59 PM 41.8160 -105.2930 91° East 502 578 37,000  Level FlightAware ADS-B
Tue 07:16:40 PM 41.8120 -105.1730 93° East 502 578 37,000  Level FlightAware ADS-B
Tue 07:17:15 PM 41.8080 -105.0620 93° East 502 578 37,000  Level FlightAware ADS-B
Tue 07:18:05 PM 41.8020 -104.9060 93° East 501 577 37,000  Level FlightAware ADS-B
Tue 07:18:59 PM 41.7960 -104.7370 93° East 502 578 37,000  Level FlightAware ADS-B
Tue 07:19:42 PM 41.7910 -104.6040 93° East 500 575 37,000  Level FlightAware ADS-B
Tue 07:20:24 PM 41.7860 -104.4750 93° East 500 575 37,000  Level FlightAware ADS-B
Tue 07:21:06 PM 41.7810 -104.3460 93° East 501 577 37,000  Level FlightAware ADS-B
Tue 07:21:45 PM 41.7760 -104.2240 93° East 500 575 37,000  Level FlightAware ADS-B
Tue 07:22:30 PM 41.7700 -104.0850 93° East 500 575 37,000  Level FlightAware ADS-B
Tue 07:23:12 PM 41.7640 -103.9550 93° East 500 575 37,000  Level FlightAware ADS-B
Tue 07:23:54 PM 41.7580 -103.8270 94° East 499 574 37,000  Level FlightAware ADS-B
Tue 07:24:37 PM 41.7520 -103.6930 93° East 500 575 37,000  Level FlightAware ADS-B
Tue 07:25:18 PM 41.7460 -103.5680 94° East 500 575 37,000  Level FlightAware ADS-B
Tue 07:25:59 PM 41.7400 -103.4400 94° East 502 578 37,000  Level FlightAware ADS-B
Tue 07:26:43 PM 41.7330 -103.3030 94° East 501 577 37,000  Level FlightAware ADS-B
Tue 07:27:25 PM 41.7260 -103.1750 94° East 500 575 37,000  Level FlightAware ADS-B
Tue 07:28:23 PM 41.7180 -103.0170 94° East 500 575 37,000  Level FlightAware ADS-B
Tue 07:28:59 PM 41.7130 -102.9220 94° East 500 575 37,000  Level FlightAware ADS-B
Tue 07:29:47 PM 41.7060 -102.7960 94° East 500 575 37,000  Level FlightAware ADS-B
Tue 07:30:26 PM 41.6960 -102.6170 94° East 503 579 37,000  Level FlightAware ADS-B
Tue 07:31:09 PM 41.6880 -102.4830 95° East 503 579 37,000  Level FlightAware ADS-B
Tue 07:32:06 PM 41.6790 -102.3190 94° East 504 580 37,000  Level FlightAware ADS-B
Tue 07:32:40 PM 41.6750 -102.2290 93° East 504 580 37,000  Level FlightAware ADS-B
Tue 07:33:30 PM 41.6680 -102.0970 94° East 504 580 37,000  Level FlightAware ADS-B
Tue 07:34:10 PM 41.6570 -101.9390 95° East 503 579 37,000  Level FlightAware ADS-B
Tue 07:34:48 PM 41.6510 -101.8390 95° East 503 579 37,000  Level FlightAware ADS-B
Tue 07:35:36 PM 41.6450 -101.7120 94° East 503 579 37,000  Level FlightAware ADS-B
Tue 07:36:12 PM 41.6400 -101.6170 94° East 503 579 37,000  Level FlightAware ADS-B
Tue 07:37:01 PM 41.6330 -101.4880 94° East 503 579 37,000  Level FlightAware ADS-B
Tue 07:37:37 PM 41.6280 -101.3930 94° East 503 579 37,000  Level FlightAware ADS-B
Tue 07:38:23 PM 41.6220 -101.2710 94° East 503 579 37,000  Level FlightAware ADS-B
Tue 07:38:59 PM 41.6170 -101.1760 94° East 503 579 37,000  Level FlightAware ADS-B
Tue 07:39:47 PM 41.6100 -101.0500 94° East 503 579 37,000  Level FlightAware ADS-B
Tue 07:40:25 PM 41.6050 -100.9490 94° East 503 579 37,000  Level FlightAware ADS-B
Tue 07:41:11 PM 41.5980 -100.8280 94° East 503 579 37,000  Level FlightAware ADS-B
Tue 07:41:47 PM 41.5930 -100.7330 94° East 503 579 37,000  Level FlightAware ADS-B
Tue 07:42:36 PM 41.5870 -100.6040 94° East 503 579 37,000  Level FlightAware ADS-B
Tue 07:43:12 PM 41.5820 -100.5090 94° East 503 579 37,000  Level FlightAware ADS-B
Tue 07:44:20 PM 41.5242 -100.0575 94° East 498 573 37,000  Level Minneapolis Center
Tue 07:45:22 PM 41.5094 -99.8739 96° East 498 573 37,000  Level Minneapolis Center
Tue 07:46:26 PM 41.4942 -99.6894 96° East 497 572 37,000  Level Denver Center
Tue 07:52:31 PM 41.4570 -98.5460 96° East 502 578 37,000  Level FlightAware ADS-B
Tue 07:53:14 PM 41.4580 -98.4310 89° East 502 578 37,000  Level FlightAware ADS-B
Tue 07:53:53 PM 41.4600 -98.3280 88° East 502 578 37,000  Level FlightAware ADS-B
Tue 07:54:35 PM 41.4590 -98.1620 90° East 508 585 37,000  Level FlightAware ADS-B
Tue 07:55:13 PM 41.4590 -98.0450 90° East 509 586 37,000  Level FlightAware ADS-B
Tue 07:55:58 PM 41.4590 -97.9210 90° East 510 587 37,000  Level FlightAware ADS-B
Tue 07:56:41 PM 41.4590 -97.7640 90° East 513 590 37,000  Level FlightAware ADS-B
Tue 07:57:21 PM 41.4580 -97.6390 91° East 511 588 37,000  Level FlightAware ADS-B
Tue 07:58:05 PM 41.4580 -97.5010 90° East 508 585 37,000  Level FlightAware ADS-B
Tue 07:58:47 PM 41.4580 -97.3700 90° East 508 585 37,000  Level FlightAware ADS-B
Tue 07:59:29 PM 41.4570 -97.2400 91° East 508 585 37,000  Level FlightAware ADS-B
Tue 08:00:09 PM 41.4480 -97.1130 95° East 512 589 37,000  Level FlightAware ADS-B
Tue 08:00:50 PM 41.4150 -96.9960 111° Southeast 512 589 37,000  Level FlightAware ADS-B
Tue 08:01:37 PM 41.3490 -96.8780 127° Southeast 507 583 37,000  Level FlightAware ADS-B
Tue 08:02:17 PM 41.2930 -96.7790 127° Southeast 494 568 37,000  Level FlightAware ADS-B
Tue 08:03:01 PM 41.2320 -96.6730 127° Southeast 493 567 37,000  Level FlightAware ADS-B
Tue 08:03:40 PM 41.1780 -96.5790 127° Southeast 492 566 37,000  Level FlightAware ADS-B
Tue 08:04:23 PM 41.1190 -96.4760 127° Southeast 493 567 37,000  Level FlightAware ADS-B
Tue 08:05:07 PM 41.0580 -96.3700 127° Southeast 500 575 37,000  Level FlightAware ADS-B
Tue 08:05:47 PM 41.0010 -96.2710 127° Southeast 501 577 37,000  Level FlightAware ADS-B
Tue 08:06:25 PM 40.9470 -96.1780 128° Southeast 501 577 37,000  Level FlightAware ADS-B
Tue 08:07:13 PM 40.8810 -96.0620 127° Southeast 502 578 37,000  Level FlightAware ADS-B
Tue 08:07:53 PM 40.8250 -95.9640 127° Southeast 502 578 37,000  Level FlightAware ADS-B
Tue 08:08:37 PM 40.7630 -95.8560 127° Southeast 502 578 37,000  Level FlightAware ADS-B
Tue 08:09:17 PM 40.7090 -95.7600 127° Southeast 501 577 37,000  Level FlightAware ADS-B
Tue 08:09:57 PM 40.6520 -95.6610 127° Southeast 500 575 37,000  Level FlightAware ADS-B
Tue 08:10:37 PM 40.5980 -95.5640 126° Southeast 499 574 37,000  Level FlightAware ADS-B
Tue 08:11:39 PM 40.5200 -95.4100 124° Southeast 497 572 37,000  Level FlightAware ADS-B
Tue 08:12:19 PM 40.5210 -95.2910 89° East 490 564 37,000  Level FlightAware ADS-B
Tue 08:13:01 PM 40.5390 -95.1660 79° East 488 562 37,000  Level FlightAware ADS-B
Tue 08:13:41 PM 40.5540 -95.0520 80° East 488 562 37,000  Level FlightAware ADS-B
Tue 08:14:27 PM 40.5720 -94.9160 80° East 486 559 37,000  Level FlightAware ADS-B
Tue 08:15:05 PM 40.5870 -94.8040 80° East 488 562 37,000  Level FlightAware ADS-B
Tue 08:15:51 PM 40.6050 -94.6700 80° East 491 565 37,000  Level FlightAware ADS-B
Tue 08:16:33 PM 40.6200 -94.5520 80° East 490 564 37,000  Level FlightAware ADS-B
Tue 08:17:27 PM 40.6410 -94.3880 80° East 492 566 37,000  Level FlightAware ADS-B
Tue 08:18:25 PM 40.6630 -94.2160 80° East 492 566 37,000  Level FlightAware ADS-B
Tue 08:19:05 PM 40.6780 -94.1020 80° East 493 567 37,000  Level FlightAware ADS-B
Tue 08:19:43 PM 40.6920 -93.9870 81° East 495 570 37,000  Level FlightAware ADS-B
Tue 08:20:29 PM 40.7090 -93.8560 80° East 496 571 37,000  Level FlightAware ADS-B
Tue 08:21:08 PM 40.7240 -93.7350 81° East 496 571 37,000  Level FlightAware ADS-B
Tue 08:22:07 PM 40.7460 -93.5580 81° East 496 571 37,000  Level FlightAware ADS-B
Tue 08:22:52 PM 40.7620 -93.4270 81° East 497 572 37,000  Level FlightAware ADS-B
Tue 08:23:32 PM 40.7770 -93.3050 81° East 498 573 37,000  Level FlightAware ADS-B
Tue 08:24:28 PM 40.7970 -93.1380 81° East 499 574 37,000  Level FlightAware ADS-B
Tue 08:25:10 PM 40.8110 -93.0110 82° East 501 577 37,000  Level FlightAware ADS-B
Tue 08:25:52 PM 40.8260 -92.8830 81° East 502 578 37,000 -366 Level FlightAware ADS-B
Tue 08:26:32 PM 40.8400 -92.7640 81° East 502 578 36,500 -825 Descending FlightAware ADS-B
Tue 08:27:12 PM 40.8540 -92.6440 81° East 500 575 35,900 -977 Descending FlightAware ADS-B
Tue 08:27:58 PM 40.8690 -92.5030 82° East 500 575 35,100 -1,000 Descending FlightAware ADS-B
Tue 08:28:42 PM 40.8840 -92.3730 81° East 498 573 34,400 -929 Descending FlightAware ADS-B
Tue 08:29:22 PM 40.8980 -92.2520 81° East 499 574 33,800 -923 Descending FlightAware ADS-B
Tue 08:30:00 PM 40.9100 -92.1380 82° East 501 577 33,200 -940 Descending FlightAware ADS-B
Tue 08:30:45 PM 40.9250 -92.0030 82° East 498 573 32,500 -955 Descending FlightAware ADS-B
Tue 08:31:28 PM 40.9390 -91.8730 82° East 496 571 31,800 -988 Descending FlightAware ADS-B
Tue 08:32:10 PM 40.9520 -91.7450 82° East 490 564 31,100 -977 Descending FlightAware ADS-B
Tue 08:32:54 PM 40.9660 -91.6180 82° East 485 558 30,400 -1,012 Descending FlightAware ADS-B
Tue 08:33:33 PM 40.9770 -91.5070 82° East 485 558 29,700 -987 Descending FlightAware ADS-B
Tue 08:34:13 PM 40.9890 -91.3870 82° East 477 549 29,100 -519 Descending FlightAware ADS-B
Tue 08:34:54 PM 41.0020 -91.2690 82° East 476 548 29,000 -71 Descending FlightAware ADS-B
Tue 08:35:38 PM 41.0140 -91.1420 83° East 476 548 29,000  Level FlightAware ADS-B
Tue 08:36:19 PM 41.0260 -91.0240 82° East 476 548 29,000 -349 Level FlightAware ADS-B
Tue 08:37:04 PM 41.0390 -90.8950 82° East 472 543 28,500 -1,394 Descending FlightAware ADS-B
Tue 08:37:58 PM 41.0540 -90.7380 83° East 460 529 26,700 -2,000 Descending FlightAware ADS-B
Tue 08:38:43 PM 41.0660 -90.6180 82° East 453 521 25,200 -1,553 Descending FlightAware ADS-B
Tue 08:39:23 PM 41.0760 -90.5120 83° East 447 514 24,500 -857 Descending FlightAware ADS-B
Tue 08:40:07 PM 41.0880 -90.3900 83° East 435 501 24,000 -366 Descending FlightAware ADS-B
Tue 08:40:45 PM 41.0970 -90.2900 83° East 438 504 24,000 -506 Level FlightAware ADS-B
Tue 08:41:30 PM 41.1080 -90.1640 83° East 459 528 23,300 -977 Descending FlightAware ADS-B
Tue 08:42:11 PM 41.1180 -90.0520 83° East 447 514 22,600 -1,835 Descending FlightAware ADS-B
Tue 08:42:55 PM 41.1290 -89.9330 83° East 444 511 20,700 -2,512 Descending FlightAware ADS-B
Tue 08:43:37 PM 41.1390 -89.8220 83° East 432 497 19,000 -2,700 Descending FlightAware ADS-B
Tue 08:44:15 PM 41.1480 -89.7210 83° East 437 503 17,100 -2,682 Descending FlightAware ADS-B
Tue 08:45:02 PM 41.1590 -89.5980 83° East 425 489 15,200 -1,744 Descending FlightAware ADS-B
Tue 08:45:41 PM 41.1670 -89.4960 84° East 429 494 14,600 -963 Descending FlightAware ADS-B
Tue 08:46:23 PM 41.1750 -89.3850 84° East 426 490 13,900 -977 Descending FlightAware ADS-B
Tue 08:47:07 PM 41.2040 -89.2800 70° East 421 484 13,200 -951 Descending FlightAware ADS-B
Tue 08:47:45 PM 41.2360 -89.1930 64° Northeast 414 476 12,600 -1,012 Descending FlightAware ADS-B
Tue 08:48:30 PM 41.2720 -89.0920 65° Northeast 391 450 11,800 -1,047 Descending FlightAware ADS-B
Tue 08:49:11 PM 41.3040 -89.0030 64° Northeast 387 445 11,100 -1,116 Descending FlightAware ADS-B
Tue 08:49:56 PM 41.3370 -88.9110 64° Northeast 359 413 10,200 -1,263 Descending FlightAware ADS-B
Tue 08:50:08 PM 41.3450 -88.8880 65° Northeast 351 404 9,900 -732 Descending FlightAware ADS-B
Tue 08:50:37 PM 41.3650 -88.8330 64° Northeast 318 366 9,700 -764 Descending FlightAware ADS-B
Tue 08:51:03 PM 41.3810 -88.7870 65° Northeast 312 359 9,200 -1,200 Descending FlightAware ADS-B
Tue 08:51:32 PM 41.3990 -88.7390 63° Northeast 305 351 8,600 -1,227 Descending FlightAware ADS-B
Tue 08:51:47 PM 41.4080 -88.7130 65° Northeast 301 346 8,300 -1,231 Descending FlightAware ADS-B
Tue 08:52:11 PM 41.4220 -88.6730 65° Northeast 297 342 7,800 -1,256 Descending FlightAware ADS-B
Tue 08:52:30 PM 41.4320 -88.6440 65° Northeast 297 342 7,400 -1,535 Descending FlightAware ADS-B
Tue 08:52:54 PM 41.4470 -88.6020 65° Northeast 297 342 6,700 -1,610 Descending FlightAware ADS-B
Tue 08:53:11 PM 41.4570 -88.5740 65° Northeast 298 343 6,300 -837 Descending FlightAware ADS-B
Tue 08:53:37 PM 41.4720 -88.5290 66° East 297 342 6,100 -222 Descending FlightAware ADS-B
Tue 08:54:05 PM 41.4880 -88.4840 65° Northeast 293 337 6,100 -545 Level FlightAware ADS-B
Tue 08:54:21 PM 41.4960 -88.4580 68° East 295 339 5,700 -1,364 Descending FlightAware ADS-B
Tue 08:54:49 PM 41.5110 -88.4090 68° East 296 341 5,100 -679 Descending FlightAware ADS-B
Tue 08:55:14 PM 41.5230 -88.3680 69° East 296 341 5,100  Level FlightAware ADS-B
Tue 08:55:44 PM 41.5390 -88.3170 67° East 296 341 5,100  Level FlightAware ADS-B
Tue 08:56:13 PM 41.5530 -88.2670 69° East 297 342 5,100  Level FlightAware ADS-B
Tue 08:56:38 PM 41.5560 -88.2230 85° East 297 342 5,100  Level FlightAware ADS-B
Tue 08:57:09 PM 41.5590 -88.1650 86° East 298 343 5,100  Level FlightAware ADS-B
Tue 08:57:35 PM 41.5610 -88.1160 87° East 297 342 5,100  Level FlightAware ADS-B
Tue 08:57:48 PM 41.5630 -88.0940 83° East 297 342 5,100  Level FlightAware ADS-B
Tue 08:58:18 PM 41.5650 -88.0390 87° East 297 342 5,100  Level FlightAware ADS-B
Tue 08:58:45 PM 41.5670 -87.9880 87° East 295 339 5,100 -105 Level FlightAware ADS-B
Tue 08:59:15 PM 41.5700 -87.9350 86° East 291 335 5,000 -931 Descending FlightAware ADS-B
Tue 08:59:43 PM 41.5720 -87.8820 87° East 294 338 4,200 -1,393 Descending FlightAware ADS-B
Tue 09:00:11 PM 41.5740 -87.8340 87° East 290 334 3,700 -1,200 Descending FlightAware ADS-B
Tue 09:00:23 PM 41.5780 -87.8150 74° East 289 333 3,400 -947 Descending FlightAware ADS-B
Tue 09:00:49 PM 41.5920 -87.7700 67° East 288 331 3,100 -316 Descending FlightAware ADS-B
Tue 09:01:20 PM 41.6080 -87.7200 67° East 279 321 3,100  Level FlightAware ADS-B
Tue 09:01:47 PM 41.6210 -87.6790 67° East 252 290 3,100  Level FlightAware ADS-B
Tue 09:02:15 PM 41.6330 -87.6410 67° East 221 254 3,100  Level FlightAware ADS-B
Tue 09:02:44 PM 41.6480 -87.6100 57° Northeast 209 241 3,100  Level FlightAware ADS-B
Tue 09:02:56 PM 41.6570 -87.6070 14° North 202 232 3,100 -649 Level FlightAware ADS-B
Tue 09:03:21 PM 41.6820 -87.6120 352° North 196 226 2,700 -667 Descending FlightAware ADS-B
Tue 09:03:41 PM 41.6950 -87.6270 319° Northwest 185 213 2,600 -130 Descending FlightAware ADS-B
Tue 09:04:07 PM 41.7110 -87.6470 317° Northwest 173 199 2,600 -453 Level FlightAware ADS-B
Tue 09:04:34 PM 41.7250 -87.6680 312° West 176 203 2,200 -842 Descending FlightAware ADS-B
Tue 09:05:04 PM 41.7420 -87.6910 315° West 162 186 1,800 -842 Descending FlightAware ADS-B
Tue 09:05:31 PM 41.7550 -87.7100 313° West 149 171 1,400 -675 Descending FlightAware ADS-B
Tue 09:06:24 PM 41.7800 -87.7456 313° West 172 198 900 -566 Descending Chicago Center

Login

Don't have an account? Register now (free) for customized features, flight alerts, and more!